Amstel Stork — 3FOP7 — position and weather

sailwx.info

Track history (hours):
 
Tides and Currents Weather Stations Pressure Air Temp Water Temp Dewpoint Dewpoint Depression Visibility Wind Speed Wind Dir Waves Ship Positions

Amstel Stork

Last reported at 2017-Sep-17 10:41 UTC. Time now 2017-Sep-25 11:32 UTC.
Position N 35°06' W 124°09'.
Warning: this ship's position is 8 days out of date.

Length 200 m; draft 12.5 m.

Type: Cargo ship. MMSI: 374512000.

Date/timePositionNaut miles runAvg speedWind from/ knotsBaromVisibWave heightAir tempDewpointWater temp
2017-Sep-17 10:41N 35°06' W 124°09'211.0
2017-Sep-17 10:30N 35°06' W 124°07'5211.0
2017-Sep-17 05:49N 35°01' W 123°04'310.8
2017-Sep-17 05:31N 34°59' W 123°00'1210.9
2017-Sep-17 04:26N 34°55' W 122°47'510.8
2017-Sep-17 04:00N 34°53' W 122°42'1611.1
2017-Sep-17 02:35N 34°48' W 122°24'1110.9
2017-Sep-17 01:36N 34°44' W 122°12'210.9
2017-Sep-17 01:26N 34°43' W 122°10'510.6
2017-Sep-17 00:58N 34°41' W 122°04'910.9
2017-Sep-17 00:10N 34°38' W 121°54'911.1
2017-Sep-16 23:22N 34°35' W 121°44'411.2
2017-Sep-16 23:01N 34°34' W 121°39'611.1
2017-Sep-16 22:29N 34°33' W 121°32'511.1
2017-Sep-16 22:00N 34°32' W 121°26'611.1
2017-Sep-16 21:30N 34°31' W 121°19'611.3
2017-Sep-16 21:00N 34°30' W 121°13'612.6
2017-Sep-16 20:31N 34°29' W 121°05'611.6
2017-Sep-16 19:59N 34°27' W 120°58'511.1
2017-Sep-16 19:31N 34°26' W 120°52'611.3
2017-Sep-16 19:00N 34°25' W 120°45'611.1
2017-Sep-16 18:31N 34°23' W 120°39'611.3
2017-Sep-16 18:01N 34°22' W 120°32'611.6
2017-Sep-16 17:30N 34°20' W 120°25'611.8
2017-Sep-16 17:01N 34°19' W 120°18'611.7
2017-Sep-16 16:30N 34°17' W 120°11'611.8
2017-Sep-16 16:00N 34°16' W 120°05'611.8
2017-Sep-16 15:30N 34°14' W 119°58'611.8
2017-Sep-16 15:00N 34°12' W 119°51'611.7
2017-Sep-16 14:29N 34°11' W 119°44'611.8
2017-Sep-16 14:00N 34°09' W 119°37'611.5
2017-Sep-16 13:31N 34°08' W 119°31'611.4
2017-Sep-16 12:59N 34°06' W 119°23'611.9
2017-Sep-16 12:28N 34°05' W 119°16'611.8
2017-Sep-16 11:57N 34°02' W 119°10'611.5
2017-Sep-16 11:28N 33°59' W 119°04'511.7
2017-Sep-16 11:01N 33°56' W 118°58'612.1
2017-Sep-16 10:31N 33°53' W 118°52'611.9
2017-Sep-16 10:01N 33°50' W 118°46'611.8
2017-Sep-16 09:31N 33°47' W 118°40'611.7
2017-Sep-16 09:00N 33°45' W 118°34'611.6
2017-Sep-16 08:31N 33°42' W 118°28'611.3
2017-Sep-16 08:00N 33°39' W 118°22'510.1
2017-Sep-16 07:29N 33°38' W 118°16'4 7.9
2017-Sep-16 06:59N 33°41' W 118°12'3 7.0
2017-Sep-16 06:30N 33°44' W 118°12'1 1.8
2017-Sep-16 06:00N 33°45' W 118°12'0 0.0
2017-Sep-16 05:11N 33°45' W 118°12'0 0.0
2017-Sep-16 04:59N 33°45' W 118°12'0 0.0
2017-Sep-16 04:23N 33°45' W 118°12'0 0.0
2017-Sep-16 03:53N 33°45' W 118°12'0 0.0
2017-Sep-16 03:29N 33°45' W 118°12'0 0.0
2017-Sep-16 02:59N 33°45' W 118°12'0 0.0
2017-Sep-16 02:28N 33°45' W 118°12'0 0.0
2017-Sep-16 01:59N 33°45' W 118°12'0 0.0
2017-Sep-16 00:17N 33°45' W 118°12'0 0.0
2017-Sep-15 23:35N 33°45' W 118°12'0 0.0
2017-Sep-15 23:28N 33°45' W 118°12'0 0.0
2017-Sep-15 22:53N 33°45' W 118°12'0 0.0
2017-Sep-15 22:29N 33°45' W 118°12'0 0.0
2017-Sep-15 21:58N 33°45' W 118°12'0 0.0
2017-Sep-15 21:22N 33°45' W 118°12'0 0.0
2017-Sep-15 20:53N 33°45' W 118°12'0 0.0
2017-Sep-15 20:22N 33°45' W 118°12'0 0.0
2017-Sep-15 19:52N 33°45' W 118°12'0 0.0
2017-Sep-15 19:29N 33°45' W 118°12'0 0.0
2017-Sep-15 18:53N 33°45' W 118°12'0 0.0
2017-Sep-15 18:16N 33°45' W 118°12'0 0.0
2017-Sep-15 17:59N 33°45' W 118°12'0 0.0
2017-Sep-15 17:29N 33°45' W 118°12'0 0.0
2017-Sep-15 16:53N 33°45' W 118°12'0 0.0
2017-Sep-15 15:46N 33°45' W 118°12'0 0.0
2017-Sep-15 15:29N 33°45' W 118°12'0 0.0
2017-Sep-15 13:05N 33°45' W 118°12'0 0.0
2017-Sep-15 11:04N 33°45' W 118°12'0 0.0
2017-Sep-15 10:46N 33°45' W 118°12'0 0.0
2017-Sep-15 10:23N 33°45' W 118°12'0 0.0
2017-Sep-15 09:53N 33°45' W 118°12'0 0.0
2017-Sep-15 09:28N 33°45' W 118°12'0 0.0
2017-Sep-15 08:04N 33°45' W 118°12'0 0.1
2017-Sep-15 07:58N 33°45' W 118°12'0 0.0
2017-Sep-15 07:28N 33°45' W 118°12'0 0.0
2017-Sep-15 06:34N 33°45' W 118°12'0 0.0
2017-Sep-15 06:22N 33°45' W 118°12'0 0.0
2017-Sep-15 05:58N 33°45' W 118°12'0 0.0
2017-Sep-15 04:52N 33°45' W 118°12'0 0.0
2017-Sep-15 01:46N 33°45' W 118°12'0 0.0
2017-Sep-15 01:28N 33°45' W 118°12'0 0.0
2017-Sep-15 00:58N 33°45' W 118°12'0 0.0
2017-Sep-15 00:22N 33°45' W 118°12'0 0.0
2017-Sep-14 23:52N 33°45' W 118°12'0 0.0
2017-Sep-14 23:28N 33°45' W 118°12'0 0.2
2017-Sep-14 23:00N 33°45' W 118°12'1 2.8
2017-Sep-14 22:30N 33°44' W 118°11'1 2.1
2017-Sep-14 21:59N 33°44' W 118°10'0 0.0
2017-Sep-14 21:08N 33°44' W 118°10'0 0.0
2017-Sep-14 20:56N 33°44' W 118°10'0 0.0
2017-Sep-14 20:26N 33°44' W 118°10'0 0.0
2017-Sep-14 19:59N 33°44' W 118°10'0 0.0
2017-Sep-14 19:29N 33°44' W 118°10'0 0.0
2017-Sep-14 18:59N 33°44' W 118°10'0 0.0
2017-Sep-14 18:29N 33°44' W 118°10'0 0.0
2017-Sep-14 17:50N 33°44' W 118°10'0 0.1
2017-Sep-14 17:20N 33°44' W 118°10'0 0.1
2017-Sep-14 16:59N 33°44' W 118°10'0 0.1
2017-Sep-14 16:20N 33°44' W 118°10'0 0.1
2017-Sep-14 15:50N 33°44' W 118°10'0 0.0
2017-Sep-14 15:26N 33°44' W 118°10'0 0.0
2017-Sep-14 14:56N 33°44' W 118°10'0 0.1
2017-Sep-14 14:26N 33°44' W 118°10'0 0.1
2017-Sep-14 13:50N 33°44' W 118°10'0 0.1
2017-Sep-14 13:23N 33°44' W 118°10'0 0.1
2017-Sep-14 12:56N 33°44' W 118°10'0 0.0
2017-Sep-14 12:20N 33°44' W 118°10'0 0.0
2017-Sep-14 11:59N 33°44' W 118°10'0 0.0
2017-Sep-14 11:29N 33°44' W 118°10'0 0.0
2017-Sep-14 10:50N 33°44' W 118°10'0 0.0
2017-Sep-14 10:26N 33°44' W 118°10'0 0.0
2017-Sep-14 09:50N 33°44' W 118°10'0 0.0
2017-Sep-14 09:20N 33°44' W 118°10'0 0.0
2017-Sep-14 08:59N 33°44' W 118°10'0 0.0
2017-Sep-14 08:29N 33°44' W 118°10'0 0.0
2017-Sep-14 07:56N 33°44' W 118°10'0 0.0
2017-Sep-14 07:29N 33°44' W 118°10'0 0.0
2017-Sep-14 06:50N 33°44' W 118°10'0 0.0
2017-Sep-14 06:26N 33°44' W 118°10'0 0.0
2017-Sep-14 05:59N 33°44' W 118°10'0 0.0
2017-Sep-14 05:26N 33°44' W 118°10'0 0.0
2017-Sep-14 04:59N 33°44' W 118°10'0 0.0
2017-Sep-14 04:26N 33°44' W 118°10'0 0.0
2017-Sep-14 03:56N 33°44' W 118°10'0 0.0
2017-Sep-14 03:08N 33°44' W 118°10'0 0.0
2017-Sep-14 02:59N 33°44' W 118°10'0 0.0
2017-Sep-14 02:26N 33°44' W 118°10'0 0.0
2017-Sep-14 01:56N 33°44' W 118°10'0 0.0
2017-Sep-14 01:29N 33°44' W 118°10'0 0.0
2017-Sep-14 00:59N 33°44' W 118°10'0 0.0
2017-Sep-14 00:29N 33°44' W 118°10'0 0.0
2017-Sep-13 23:59N 33°44' W 118°10'0 0.0
2017-Sep-13 23:29N 33°44' W 118°10'0 0.0
2017-Sep-13 22:59N 33°44' W 118°10'0 0.0
2017-Sep-13 22:29N 33°44' W 118°10'0 0.0
2017-Sep-13 21:56N 33°44' W 118°10'0 0.0
2017-Sep-13 21:29N 33°44' W 118°10'0 0.0
2017-Sep-13 20:56N 33°44' W 118°10'0 0.0
2017-Sep-13 20:20N 33°44' W 118°10'0 0.0
2017-Sep-13 19:59N 33°44' W 118°10'0 0.0
2017-Sep-13 19:29N 33°44' W 118°10'0 0.0
2017-Sep-13 18:53N 33°44' W 118°10'0 0.0
2017-Sep-13 18:26N 33°44' W 118°10'0 0.0
2017-Sep-13 17:53N 33°44' W 118°10'0 0.0
2017-Sep-13 17:29N 33°44' W 118°10'0 0.0
2017-Sep-13 16:56N 33°44' W 118°10'0 0.0
2017-Sep-13 16:20N 33°44' W 118°10'0 0.1
2017-Sep-13 15:59N 33°44' W 118°10'0 0.0
2017-Sep-13 15:26N 33°44' W 118°10'0 0.0
2017-Sep-13 14:59N 33°44' W 118°10'0 0.0
2017-Sep-13 14:29N 33°44' W 118°10'0 0.0
2017-Sep-13 13:56N 33°44' W 118°10'0 0.0
2017-Sep-13 13:26N 33°44' W 118°10'0 0.0
2017-Sep-13 12:56N 33°44' W 118°10'0 0.0
2017-Sep-13 12:26N 33°44' W 118°10'0 0.1
2017-Sep-13 11:56N 33°44' W 118°10'0 0.1
2017-Sep-13 11:29N 33°44' W 118°10'0 0.0
2017-Sep-13 10:56N 33°44' W 118°10'0 0.0
2017-Sep-13 10:29N 33°44' W 118°10'0 0.0
2017-Sep-13 09:59N 33°44' W 118°10'0 0.0
2017-Sep-13 09:26N 33°44' W 118°10'0 0.0
2017-Sep-13 08:50N 33°44' W 118°10'0 0.1
2017-Sep-13 08:26N 33°44' W 118°10'0 0.0
2017-Sep-13 07:56N 33°44' W 118°10'0 0.0
2017-Sep-13 07:26N 33°44' W 118°10'0 0.1
2017-Sep-13 06:50N 33°44' W 118°10'0 0.0
2017-Sep-13 06:29N 33°44' W 118°10'0 0.0
2017-Sep-13 05:59N 33°44' W 118°10'610925456.2
2017-Sep-13 05:44N 31°18' E 121°06'0 0.0
2017-Sep-13 05:29N 31°18' E 121°06'6109536442.6
2017-Sep-13 05:29N 33°44' W 118°10'610912518.0
2017-Sep-13 04:59N 31°18' E 121°06'6110511496.3
2017-Sep-13 04:59N 33°44' W 118°10'611012511.0
2017-Sep-13 04:29N 31°18' E 121°06'6109100430.0
2017-Sep-13 04:26N 33°44' W 118°10'0 0.0
2017-Sep-13 03:59N 33°44' W 118°10'0 0.1
2017-Sep-13 03:29N 33°44' W 118°10'0 0.1
2017-Sep-13 02:59N 33°44' W 118°10'0 0.0
2017-Sep-13 02:29N 33°44' W 118°10'0 0.0
2017-Sep-13 01:59N 33°44' W 118°10'0 0.1
2017-Sep-13 01:29N 33°44' W 118°10'0 0.0
2017-Sep-13 00:59N 33°44' W 118°10'0 0.0
2017-Sep-13 00:29N 33°44' W 118°10'0 0.1
2017-Sep-12 23:59N 33°44' W 118°10'0 0.0
2017-Sep-12 23:29N 33°44' W 118°10'0 0.0
2017-Sep-12 22:59N 33°44' W 118°10'0 0.0
2017-Sep-12 22:29N 33°44' W 118°10'0 0.0
2017-Sep-12 21:59N 33°44' W 118°10'0 0.0
2017-Sep-12 21:26N 33°44' W 118°10'0 0.0
2017-Sep-12 20:59N 33°44' W 118°10'0 0.0
2017-Sep-12 20:29N 33°44' W 118°10'0 0.0
2017-Sep-12 19:59N 33°44' W 118°10'0 0.0
2017-Sep-12 19:29N 33°44' W 118°10'0 0.0
2017-Sep-12 18:56N 33°44' W 118°10'0 0.0
2017-Sep-12 18:29N 33°44' W 118°10'0 0.0
2017-Sep-12 17:59N 33°44' W 118°10'0 0.0
2017-Sep-12 17:29N 33°44' W 118°10'0 0.0
2017-Sep-12 16:55N 33°44' W 118°10'0 0.0
2017-Sep-12 16:29N 33°44' W 118°10'0 0.0
2017-Sep-12 15:59N 33°44' W 118°10'0 0.0
2017-Sep-12 15:29N 33°44' W 118°10'0 0.0
2017-Sep-12 14:59N 33°44' W 118°10'0 0.0
2017-Sep-12 14:29N 33°44' W 118°10'0 0.0
2017-Sep-12 13:56N 33°44' W 118°10'0 0.0
2017-Sep-12 13:29N 33°44' W 118°10'0 0.0
2017-Sep-12 12:59N 33°44' W 118°10'0 0.1
2017-Sep-12 12:17N 33°44' W 118°10'0 0.0
2017-Sep-12 11:56N 33°44' W 118°10'0 0.0
2017-Sep-12 11:26N 33°44' W 118°10'0 0.0
2017-Sep-12 10:59N 33°44' W 118°10'0 0.1
2017-Sep-12 10:25N 33°44' W 118°10'0 0.0
2017-Sep-12 09:56N 33°44' W 118°10'0 0.0
2017-Sep-12 09:29N 33°44' W 118°10'0 0.0
2017-Sep-12 08:59N 33°44' W 118°10'0 0.0
2017-Sep-12 08:29N 33°44' W 118°10'0 0.0
2017-Sep-12 07:59N 33°44' W 118°10'0 0.0
2017-Sep-12 07:23N 33°44' W 118°10'0 0.0
2017-Sep-12 06:59N 33°44' W 118°10'0 0.0
2017-Sep-12 06:29N 33°44' W 118°10'0 0.1
2017-Sep-12 05:59N 33°44' W 118°10'0 0.0
2017-Sep-12 05:28N 33°44' W 118°10'0 0.0
2017-Sep-12 04:59N 33°44' W 118°10'0 0.0
2017-Sep-12 04:29N 33°44' W 118°10'0 0.0
2017-Sep-12 03:59N 33°44' W 118°10'0 0.0
2017-Sep-12 03:29N 33°44' W 118°10'0 0.1
2017-Sep-12 02:56N 33°44' W 118°10'0 0.1
2017-Sep-12 02:25N 33°44' W 118°10'0 0.0
2017-Sep-12 01:56N 33°44' W 118°10'0 0.0
2017-Sep-12 01:28N 33°44' W 118°10'0 0.0
2017-Sep-12 00:59N 33°44' W 118°10'0 0.0
2017-Sep-12 00:28N 33°44' W 118°10'0 0.0
2017-Sep-11 23:59N 33°44' W 118°10'0 0.1
2017-Sep-11 23:29N 33°44' W 118°10'0 0.0
2017-Sep-11 22:58N 33°44' W 118°10'0 0.1
2017-Sep-11 22:29N 33°44' W 118°10'0 0.0
2017-Sep-11 21:59N 33°44' W 118°10'0 0.0
2017-Sep-11 21:29N 33°44' W 118°10'0 0.0
2017-Sep-11 20:59N 33°44' W 118°10'0 0.0
2017-Sep-11 20:25N 33°44' W 118°10'0 0.0
2017-Sep-11 19:59N 33°44' W 118°10'0 0.0
2017-Sep-11 19:28N 33°44' W 118°10'0 0.0
2017-Sep-11 18:58N 33°44' W 118°10'0 0.0
2017-Sep-11 18:29N 33°44' W 118°10'0 0.1
2017-Sep-11 17:58N 33°44' W 118°10'0 0.1
2017-Sep-11 17:22N 33°44' W 118°10'0 0.0
2017-Sep-11 16:58N 33°44' W 118°10'0 0.0
2017-Sep-11 16:28N 33°44' W 118°10'0 0.0
2017-Sep-11 15:59N 33°44' W 118°10'0 0.0
2017-Sep-11 15:28N 33°44' W 118°10'0 0.0
2017-Sep-11 14:58N 33°44' W 118°10'0 0.0
2017-Sep-11 14:28N 33°44' W 118°10'0 0.0
2017-Sep-11 13:55N 33°44' W 118°10'0 0.0
2017-Sep-11 13:19N 33°44' W 118°10'0 0.1
2017-Sep-11 12:55N 33°44' W 118°10'0 0.1
2017-Sep-11 12:28N 33°44' W 118°10'0 0.1
2017-Sep-11 11:58N 33°44' W 118°10'0 0.1
2017-Sep-11 11:28N 33°44' W 118°10'0 0.0
2017-Sep-11 10:58N 33°44' W 118°10'0 0.1
2017-Sep-11 10:28N 33°44' W 118°10'0 0.0
2017-Sep-11 09:58N 33°44' W 118°10'0 0.1
2017-Sep-11 09:29N 33°44' W 118°10'0 0.1
2017-Sep-11 08:58N 33°44' W 118°10'0 0.1
2017-Sep-11 08:28N 33°44' W 118°10'0 0.1
2017-Sep-11 07:58N 33°44' W 118°10'0 0.1
2017-Sep-11 07:28N 33°44' W 118°10'0 0.1
2017-Sep-11 06:58N 33°44' W 118°10'0 0.0
2017-Sep-11 06:28N 33°44' W 118°10'0 0.0
2017-Sep-11 05:58N 33°44' W 118°10'0 0.1
2017-Sep-11 05:28N 33°44' W 118°10'0 0.1
2017-Sep-11 04:58N 33°44' W 118°10'0 0.1
2017-Sep-11 04:28N 33°44' W 118°10'0 0.0
2017-Sep-11 03:58N 33°44' W 118°10'0 0.0
2017-Sep-11 03:28N 33°44' W 118°10'0 0.0
2017-Sep-11 02:58N 33°44' W 118°10'0 0.0
2017-Sep-11 02:28N 33°44' W 118°10'0 0.0
2017-Sep-11 01:58N 33°44' W 118°10'0 0.0
2017-Sep-11 01:28N 33°44' W 118°10'0 0.0
2017-Sep-11 00:58N 33°44' W 118°10'0 0.0
2017-Sep-11 00:28N 33°44' W 118°10'0 0.0
2017-Sep-10 23:58N 33°44' W 118°10'0 0.0
2017-Sep-10 23:25N 33°44' W 118°10'0 0.0
2017-Sep-10 22:58N 33°44' W 118°10'0 0.0
2017-Sep-10 22:28N 33°44' W 118°10'0 0.0
2017-Sep-10 21:58N 33°44' W 118°10'0 0.0
2017-Sep-10 21:28N 33°44' W 118°10'0 0.0
2017-Sep-10 20:58N 33°44' W 118°10'0 0.0
2017-Sep-10 20:28N 33°44' W 118°10'0 0.0
2017-Sep-10 19:58N 33°44' W 118°10'0 0.0
2017-Sep-10 19:25N 33°44' W 118°10'0 0.0
2017-Sep-10 18:58N 33°44' W 118°10'0 0.0
2017-Sep-10 18:28N 33°44' W 118°10'0 0.1
2017-Sep-10 17:58N 33°44' W 118°10'0 0.1
2017-Sep-10 17:28N 33°44' W 118°10'0 0.0
2017-Sep-10 16:58N 33°44' W 118°10'0 0.0
2017-Sep-10 16:28N 33°44' W 118°10'0 0.0
2017-Sep-10 15:58N 33°44' W 118°10'0 0.0
2017-Sep-10 15:28N 33°44' W 118°10'0 0.0
2017-Sep-10 14:55N 33°44' W 118°10'0 0.0
2017-Sep-10 13:58N 33°44' W 118°10'0 0.0
2017-Sep-10 13:28N 33°44' W 118°10'0 0.0
2017-Sep-10 12:58N 33°44' W 118°10'0 0.1
2017-Sep-10 12:28N 33°44' W 118°10'0 0.1
2017-Sep-10 11:58N 33°44' W 118°10'0 0.1
2017-Sep-10 11:28N 33°44' W 118°10'0 0.1
2017-Sep-10 10:55N 33°44' W 118°10'0 0.0
2017-Sep-10 10:28N 33°44' W 118°10'0 0.0
2017-Sep-10 09:58N 33°44' W 118°10'0 0.0
2017-Sep-10 09:28N 33°44' W 118°10'0 0.0
2017-Sep-10 08:58N 33°44' W 118°10'0 0.1
2017-Sep-10 08:28N 33°44' W 118°10'0 0.0
2017-Sep-10 07:58N 33°44' W 118°10'0 0.1
2017-Sep-10 07:28N 33°44' W 118°10'0 0.1
2017-Sep-10 06:58N 33°44' W 118°10'0 0.1
2017-Sep-10 06:28N 33°44' W 118°10'0 0.1
2017-Sep-10 05:52N 33°44' W 118°10'0 0.0
2017-Sep-10 05:28N 33°44' W 118°10'0 0.0
2017-Sep-10 04:58N 33°44' W 118°10'0 0.1
2017-Sep-10 04:28N 33°44' W 118°10'0 0.0
2017-Sep-10 03:58N 33°44' W 118°10'0 0.1
2017-Sep-10 03:28N 33°44' W 118°10'0 0.0
2017-Sep-10 02:55N 33°44' W 118°10'0 0.0
2017-Sep-10 02:28N 33°44' W 118°10'0 0.0
2017-Sep-10 01:58N 33°44' W 118°10'0 0.0
2017-Sep-10 01:28N 33°44' W 118°10'0 0.0
2017-Sep-10 00:58N 33°44' W 118°10'0 0.0
2017-Sep-10 00:28N 33°44' W 118°10'0 0.0
2017-Sep-09 23:58N 33°44' W 118°10'0 0.0
2017-Sep-09 23:28N 33°44' W 118°10'0 0.0
2017-Sep-09 22:58N 33°44' W 118°10'0 0.0
2017-Sep-09 22:28N 33°44' W 118°10'0 0.0
2017-Sep-09 21:58N 33°44' W 118°10'0 0.0
2017-Sep-09 21:28N 33°44' W 118°10'0 0.0
2017-Sep-09 20:58N 33°44' W 118°10'0 0.0
2017-Sep-09 20:25N 33°44' W 118°10'0 0.0
2017-Sep-09 19:58N 33°44' W 118°10'0 0.0
2017-Sep-09 19:25N 33°44' W 118°10'0 0.0
2017-Sep-09 18:58N 33°44' W 118°10'0 0.0
2017-Sep-09 18:28N 33°44' W 118°10'0 0.1
2017-Sep-09 17:58N 33°44' W 118°10'0 0.0
2017-Sep-09 17:25N 33°44' W 118°10'0 0.0
2017-Sep-09 16:58N 33°44' W 118°10'0 0.0
2017-Sep-09 16:28N 33°44' W 118°10'0 0.1
2017-Sep-09 15:58N 33°44' W 118°10'0 0.0
2017-Sep-09 15:28N 33°44' W 118°10'0 0.0
2017-Sep-09 14:58N 33°44' W 118°10'0 0.0
2017-Sep-09 14:28N 33°44' W 118°10'0 0.0
2017-Sep-09 13:55N 33°44' W 118°10'0 0.0
2017-Sep-09 13:25N 33°44' W 118°10'0 0.0
2017-Sep-09 12:58N 33°44' W 118°10'0 0.0
2017-Sep-09 12:28N 33°44' W 118°10'0 0.0
2017-Sep-09 11:58N 33°44' W 118°10'0 0.0
2017-Sep-09 11:28N 33°44' W 118°10'0 0.0
2017-Sep-09 10:58N 33°44' W 118°10'0 0.0
2017-Sep-09 10:28N 33°44' W 118°10'0 0.1
2017-Sep-09 09:58N 33°44' W 118°10'0 0.0
2017-Sep-09 09:28N 33°44' W 118°10'0 0.0
2017-Sep-09 08:58N 33°44' W 118°10'0 0.1
2017-Sep-09 08:28N 33°44' W 118°10'0 0.1
2017-Sep-09 07:58N 33°44' W 118°10'0 0.0
2017-Sep-09 07:25N 33°44' W 118°10'0 0.1
2017-Sep-09 06:58N 33°44' W 118°10'0 0.0
2017-Sep-09 06:28N 33°44' W 118°10'0 0.0
2017-Sep-09 05:58N 33°44' W 118°10'0 0.0
2017-Sep-09 05:28N 33°44' W 118°10'0 0.0
2017-Sep-09 04:58N 33°44' W 118°10'0 0.0
2017-Sep-09 04:28N 33°44' W 118°10'0 0.0
2017-Sep-09 03:58N 33°44' W 118°10'0 0.0
2017-Sep-09 03:28N 33°44' W 118°10'0 0.0
2017-Sep-09 02:55N 33°44' W 118°10'0 0.0
2017-Sep-09 02:28N 33°44' W 118°10'0 0.0
2017-Sep-09 01:58N 33°44' W 118°10'0 0.0
2017-Sep-09 01:28N 33°44' W 118°10'0 0.0
2017-Sep-09 00:58N 33°44' W 118°10'0 0.0
2017-Sep-09 00:28N 33°44' W 118°10'0 0.0
2017-Sep-08 23:58N 33°44' W 118°10'0 0.0
2017-Sep-08 23:19N 33°44' W 118°10'0 0.0
2017-Sep-08 22:58N 33°44' W 118°10'0 0.0
2017-Sep-08 22:28N 33°44' W 118°10'0 0.0
2017-Sep-08 21:58N 33°44' W 118°10'0 0.0
2017-Sep-08 21:28N 33°44' W 118°10'0 0.0
2017-Sep-08 20:58N 33°44' W 118°10'0 0.1
2017-Sep-08 20:28N 33°44' W 118°10'0 0.1
2017-Sep-08 19:58N 33°44' W 118°10'0 0.0
2017-Sep-08 19:28N 33°44' W 118°10'0 0.0
2017-Sep-08 18:58N 33°44' W 118°10'0 0.0
2017-Sep-08 18:28N 33°44' W 118°10'0 0.0
2017-Sep-08 17:55N 33°44' W 118°10'0 0.0
2017-Sep-08 17:28N 33°44' W 118°10'0 0.1
2017-Sep-08 16:58N 33°44' W 118°10'0 0.0
2017-Sep-08 16:28N 33°44' W 118°10'0 0.1
2017-Sep-08 15:58N 33°44' W 118°10'0 0.0
2017-Sep-08 15:28N 33°44' W 118°10'0 0.0
2017-Sep-08 14:58N 33°44' W 118°10'0 0.0
2017-Sep-08 14:28N 33°44' W 118°10'0 0.0
2017-Sep-08 13:58N 33°44' W 118°10'0 0.0
2017-Sep-08 13:28N 33°44' W 118°10'0 0.0
2017-Sep-08 12:58N 33°44' W 118°10'0 0.0
2017-Sep-08 12:28N 33°44' W 118°10'0 0.0
2017-Sep-08 11:58N 33°44' W 118°10'0 0.0
2017-Sep-08 11:28N 33°44' W 118°10'0 0.0
2017-Sep-08 10:58N 33°44' W 118°10'0 0.0
2017-Sep-08 10:28N 33°44' W 118°10'0 0.0
2017-Sep-08 09:58N 33°44' W 118°10'0 0.0
2017-Sep-08 09:28N 33°44' W 118°10'0 0.0
2017-Sep-08 08:58N 33°44' W 118°10'0 0.0
2017-Sep-08 08:28N 33°44' W 118°10'0 0.0
2017-Sep-08 07:58N 33°44' W 118°10'0 0.0
2017-Sep-08 07:28N 33°44' W 118°10'0 0.0
2017-Sep-08 06:58N 33°44' W 118°10'0 0.0
2017-Sep-08 06:28N 33°44' W 118°10'0 0.0
2017-Sep-08 05:58N 33°44' W 118°10'0 0.0
2017-Sep-08 05:25N 33°44' W 118°10'0 0.0
2017-Sep-08 04:58N 33°44' W 118°10'0 0.0
2017-Sep-08 04:28N 33°44' W 118°10'0 0.0
2017-Sep-08 03:58N 33°44' W 118°10'0 0.0
2017-Sep-08 03:28N 33°44' W 118°10'0 0.0
2017-Sep-08 02:58N 33°44' W 118°10'0 0.0
2017-Sep-08 02:28N 33°44' W 118°10'0 0.0
2017-Sep-08 01:58N 33°44' W 118°10'0 0.0
2017-Sep-08 01:28N 33°44' W 118°10'0 0.0
2017-Sep-08 00:58N 33°44' W 118°10'0 0.0
2017-Sep-08 00:28N 33°44' W 118°10'0 0.0
2017-Sep-07 23:55N 33°44' W 118°10'0 0.0
2017-Sep-07 23:28N 33°44' W 118°10'0 0.0
2017-Sep-07 22:58N 33°44' W 118°10'0 0.0
2017-Sep-07 22:28N 33°44' W 118°10'0 0.0
2017-Sep-07 21:58N 33°44' W 118°10'0 0.0
2017-Sep-07 21:28N 33°44' W 118°10'0 0.2
2017-Sep-07 21:01N 33°44' W 118°10'1 2.4
2017-Sep-07 20:30N 33°44' W 118°11'1 2.3
2017-Sep-07 19:53N 33°45' W 118°12'0 0.0
2017-Sep-07 19:29N 33°45' W 118°12'0 0.0
2017-Sep-07 18:59N 33°45' W 118°12'0 0.0
2017-Sep-07 18:29N 33°45' W 118°12'0 0.0
2017-Sep-07 17:59N 33°45' W 118°12'0 0.0
2017-Sep-07 17:20N 33°45' W 118°12'0 0.0
2017-Sep-07 16:59N 33°45' W 118°12'0 0.0
2017-Sep-07 16:29N 33°45' W 118°12'0 0.0
2017-Sep-07 15:59N 33°45' W 118°12'0 0.0
2017-Sep-07 15:29N 33°45' W 118°12'0 0.0
2017-Sep-07 14:58N 33°45' W 118°12'0 0.0
2017-Sep-07 14:29N 33°45' W 118°12'0 0.0
2017-Sep-07 13:59N 33°45' W 118°12'0 0.0
2017-Sep-07 13:29N 33°45' W 118°12'0 0.0
2017-Sep-07 12:59N 33°45' W 118°12'0 0.0
2017-Sep-07 12:29N 33°45' W 118°12'0 0.0
2017-Sep-07 11:59N 33°45' W 118°12'0 0.0
2017-Sep-07 11:29N 33°45' W 118°12'0 0.0
2017-Sep-07 10:58N 33°45' W 118°12'  
Track history (hours):
 
Tides and Currents Weather Stations Pressure Air Temp Water Temp Dewpoint Dewpoint Depression Visibility Wind Speed Wind Dir Waves Ship Positions

Amstel Stork

Last reported at 2017-Sep-17 10:41 UTC. Time now 2017-Sep-25 11:32 UTC.
Position N 35°06' W 124°09'.
Warning: this ship's position is 8 days out of date.

Length 200 m; draft 12.5 m.

Type: Cargo ship. MMSI: 374512000.

Date/timePositionNaut miles runAvg speedWind from/ knotsBaromVisibWave heightAir tempDewpointWater temp
2017-Sep-17 10:41N 35°06' W 124°09'211.0
2017-Sep-17 10:30N 35°06' W 124°07'5211.0
2017-Sep-17 05:49N 35°01' W 123°04'310.8
2017-Sep-17 05:31N 34°59' W 123°00'1210.9
2017-Sep-17 04:26N 34°55' W 122°47'510.8
2017-Sep-17 04:00N 34°53' W 122°42'1611.1
2017-Sep-17 02:35N 34°48' W 122°24'1110.9
2017-Sep-17 01:36N 34°44' W 122°12'210.9
2017-Sep-17 01:26N 34°43' W 122°10'510.6
2017-Sep-17 00:58N 34°41' W 122°04'910.9
2017-Sep-17 00:10N 34°38' W 121°54'911.1
2017-Sep-16 23:22N 34°35' W 121°44'411.2
2017-Sep-16 23:01N 34°34' W 121°39'611.1
2017-Sep-16 22:29N 34°33' W 121°32'511.1
2017-Sep-16 22:00N 34°32' W 121°26'611.1
2017-Sep-16 21:30N 34°31' W 121°19'611.3
2017-Sep-16 21:00N 34°30' W 121°13'612.6
2017-Sep-16 20:31N 34°29' W 121°05'611.6
2017-Sep-16 19:59N 34°27' W 120°58'511.1
2017-Sep-16 19:31N 34°26' W 120°52'611.3
2017-Sep-16 19:00N 34°25' W 120°45'611.1
2017-Sep-16 18:31N 34°23' W 120°39'611.3
2017-Sep-16 18:01N 34°22' W 120°32'611.6
2017-Sep-16 17:30N 34°20' W 120°25'611.8
2017-Sep-16 17:01N 34°19' W 120°18'611.7
2017-Sep-16 16:30N 34°17' W 120°11'611.8
2017-Sep-16 16:00N 34°16' W 120°05'611.8
2017-Sep-16 15:30N 34°14' W 119°58'611.8
2017-Sep-16 15:00N 34°12' W 119°51'611.7
2017-Sep-16 14:29N 34°11' W 119°44'611.8
2017-Sep-16 14:00N 34°09' W 119°37'611.5
2017-Sep-16 13:31N 34°08' W 119°31'611.4
2017-Sep-16 12:59N 34°06' W 119°23'611.9
2017-Sep-16 12:28N 34°05' W 119°16'611.8
2017-Sep-16 11:57N 34°02' W 119°10'611.5
2017-Sep-16 11:28N 33°59' W 119°04'511.7
2017-Sep-16 11:01N 33°56' W 118°58'612.1
2017-Sep-16 10:31N 33°53' W 118°52'611.9
2017-Sep-16 10:01N 33°50' W 118°46'611.8
2017-Sep-16 09:31N 33°47' W 118°40'611.7
2017-Sep-16 09:00N 33°45' W 118°34'611.6
2017-Sep-16 08:31N 33°42' W 118°28'611.3
2017-Sep-16 08:00N 33°39' W 118°22'510.1
2017-Sep-16 07:29N 33°38' W 118°16'4 7.9
2017-Sep-16 06:59N 33°41' W 118°12'3 7.0
2017-Sep-16 06:30N 33°44' W 118°12'1 1.8
2017-Sep-16 06:00N 33°45' W 118°12'0 0.0
2017-Sep-16 05:11N 33°45' W 118°12'0 0.0
2017-Sep-16 04:59N 33°45' W 118°12'0 0.0
2017-Sep-16 04:23N 33°45' W 118°12'0 0.0
2017-Sep-16 03:53N 33°45' W 118°12'0 0.0
2017-Sep-16 03:29N 33°45' W 118°12'0 0.0
2017-Sep-16 02:59N 33°45' W 118°12'0 0.0
2017-Sep-16 02:28N 33°45' W 118°12'0 0.0
2017-Sep-16 01:59N 33°45' W 118°12'0 0.0
2017-Sep-16 00:17N 33°45' W 118°12'0 0.0
2017-Sep-15 23:35N 33°45' W 118°12'0 0.0
2017-Sep-15 23:28N 33°45' W 118°12'0 0.0
2017-Sep-15 22:53N 33°45' W 118°12'0 0.0
2017-Sep-15 22:29N 33°45' W 118°12'0 0.0
2017-Sep-15 21:58N 33°45' W 118°12'0 0.0
2017-Sep-15 21:22N 33°45' W 118°12'0 0.0
2017-Sep-15 20:53N 33°45' W 118°12'0 0.0
2017-Sep-15 20:22N 33°45' W 118°12'0 0.0
2017-Sep-15 19:52N 33°45' W 118°12'0 0.0
2017-Sep-15 19:29N 33°45' W 118°12'0 0.0
2017-Sep-15 18:53N 33°45' W 118°12'0 0.0
2017-Sep-15 18:16N 33°45' W 118°12'0 0.0
2017-Sep-15 17:59N 33°45' W 118°12'0 0.0
2017-Sep-15 17:29N 33°45' W 118°12'0 0.0
2017-Sep-15 16:53N 33°45' W 118°12'0 0.0
2017-Sep-15 15:46N 33°45' W 118°12'0 0.0
2017-Sep-15 15:29N 33°45' W 118°12'0 0.0
2017-Sep-15 13:05N 33°45' W 118°12'0 0.0
2017-Sep-15 11:04N 33°45' W 118°12'0 0.0
2017-Sep-15 10:46N 33°45' W 118°12'0 0.0
2017-Sep-15 10:23N 33°45' W 118°12'0 0.0
2017-Sep-15 09:53N 33°45' W 118°12'0 0.0
2017-Sep-15 09:28N 33°45' W 118°12'0 0.0
2017-Sep-15 08:04N 33°45' W 118°12'0 0.1
2017-Sep-15 07:58N 33°45' W 118°12'0 0.0
2017-Sep-15 07:28N 33°45' W 118°12'0 0.0
2017-Sep-15 06:34N 33°45' W 118°12'0 0.0
2017-Sep-15 06:22N 33°45' W 118°12'0 0.0
2017-Sep-15 05:58N 33°45' W 118°12'0 0.0
2017-Sep-15 04:52N 33°45' W 118°12'0 0.0
2017-Sep-15 01:46N 33°45' W 118°12'0 0.0
2017-Sep-15 01:28N 33°45' W 118°12'0 0.0
2017-Sep-15 00:58N 33°45' W 118°12'0 0.0
2017-Sep-15 00:22N 33°45' W 118°12'0 0.0
2017-Sep-14 23:52N 33°45' W 118°12'0 0.0
2017-Sep-14 23:28N 33°45' W 118°12'0 0.2
2017-Sep-14 23:00N 33°45' W 118°12'1 2.8
2017-Sep-14 22:30N 33°44' W 118°11'1 2.1
2017-Sep-14 21:59N 33°44' W 118°10'0 0.0
2017-Sep-14 21:08N 33°44' W 118°10'0 0.0
2017-Sep-14 20:56N 33°44' W 118°10'0 0.0
2017-Sep-14 20:26N 33°44' W 118°10'0 0.0
2017-Sep-14 19:59N 33°44' W 118°10'0 0.0
2017-Sep-14 19:29N 33°44' W 118°10'0 0.0
2017-Sep-14 18:59N 33°44' W 118°10'0 0.0
2017-Sep-14 18:29N 33°44' W 118°10'0 0.0
2017-Sep-14 17:50N 33°44' W 118°10'0 0.1
2017-Sep-14 17:20N 33°44' W 118°10'0 0.1
2017-Sep-14 16:59N 33°44' W 118°10'0 0.1
2017-Sep-14 16:20N 33°44' W 118°10'0 0.1
2017-Sep-14 15:50N 33°44' W 118°10'0 0.0
2017-Sep-14 15:26N 33°44' W 118°10'0 0.0
2017-Sep-14 14:56N 33°44' W 118°10'0 0.1
2017-Sep-14 14:26N 33°44' W 118°10'0 0.1
2017-Sep-14 13:50N 33°44' W 118°10'0 0.1
2017-Sep-14 13:23N 33°44' W 118°10'0 0.1
2017-Sep-14 12:56N 33°44' W 118°10'0 0.0
2017-Sep-14 12:20N 33°44' W 118°10'0 0.0
2017-Sep-14 11:59N 33°44' W 118°10'0 0.0
2017-Sep-14 11:29N 33°44' W 118°10'0 0.0
2017-Sep-14 10:50N 33°44' W 118°10'0 0.0
2017-Sep-14 10:26N 33°44' W 118°10'0 0.0
2017-Sep-14 09:50N 33°44' W 118°10'0 0.0
2017-Sep-14 09:20N 33°44' W 118°10'0 0.0
2017-Sep-14 08:59N 33°44' W 118°10'0 0.0
2017-Sep-14 08:29N 33°44' W 118°10'0 0.0
2017-Sep-14 07:56N 33°44' W 118°10'0 0.0
2017-Sep-14 07:29N 33°44' W 118°10'0 0.0
2017-Sep-14 06:50N 33°44' W 118°10'0 0.0
2017-Sep-14 06:26N 33°44' W 118°10'0 0.0
2017-Sep-14 05:59N 33°44' W 118°10'0 0.0
2017-Sep-14 05:26N 33°44' W 118°10'0 0.0
2017-Sep-14 04:59N 33°44' W 118°10'0 0.0
2017-Sep-14 04:26N 33°44' W 118°10'0 0.0
2017-Sep-14 03:56N 33°44' W 118°10'0 0.0
2017-Sep-14 03:08N 33°44' W 118°10'0 0.0
2017-Sep-14 02:59N 33°44' W 118°10'0 0.0
2017-Sep-14 02:26N 33°44' W 118°10'0 0.0
2017-Sep-14 01:56N 33°44' W 118°10'0 0.0
2017-Sep-14 01:29N 33°44' W 118°10'0 0.0
2017-Sep-14 00:59N 33°44' W 118°10'0 0.0
2017-Sep-14 00:29N 33°44' W 118°10'0 0.0
2017-Sep-13 23:59N 33°44' W 118°10'0 0.0
2017-Sep-13 23:29N 33°44' W 118°10'0 0.0
2017-Sep-13 22:59N 33°44' W 118°10'0 0.0
2017-Sep-13 22:29N 33°44' W 118°10'0 0.0
2017-Sep-13 21:56N 33°44' W 118°10'0 0.0
2017-Sep-13 21:29N 33°44' W 118°10'0 0.0
2017-Sep-13 20:56N 33°44' W 118°10'0 0.0
2017-Sep-13 20:20N 33°44' W 118°10'0 0.0
2017-Sep-13 19:59N 33°44' W 118°10'0 0.0
2017-Sep-13 19:29N 33°44' W 118°10'0 0.0
2017-Sep-13 18:53N 33°44' W 118°10'0 0.0
2017-Sep-13 18:26N 33°44' W 118°10'0 0.0
2017-Sep-13 17:53N 33°44' W 118°10'0 0.0
2017-Sep-13 17:29N 33°44' W 118°10'0 0.0
2017-Sep-13 16:56N 33°44' W 118°10'0 0.0
2017-Sep-13 16:20N 33°44' W 118°10'0 0.1
2017-Sep-13 15:59N 33°44' W 118°10'0 0.0
2017-Sep-13 15:26N 33°44' W 118°10'0 0.0
2017-Sep-13 14:59N 33°44' W 118°10'0 0.0
2017-Sep-13 14:29N 33°44' W 118°10'0 0.0
2017-Sep-13 13:56N 33°44' W 118°10'0 0.0
2017-Sep-13 13:26N 33°44' W 118°10'0 0.0
2017-Sep-13 12:56N 33°44' W 118°10'0 0.0
2017-Sep-13 12:26N 33°44' W 118°10'0 0.1
2017-Sep-13 11:56N 33°44' W 118°10'0 0.1
2017-Sep-13 11:29N 33°44' W 118°10'0 0.0
2017-Sep-13 10:56N 33°44' W 118°10'0 0.0
2017-Sep-13 10:29N 33°44' W 118°10'0 0.0
2017-Sep-13 09:59N 33°44' W 118°10'0 0.0
2017-Sep-13 09:26N 33°44' W 118°10'0 0.0
2017-Sep-13 08:50N 33°44' W 118°10'0 0.1
2017-Sep-13 08:26N 33°44' W 118°10'0 0.0
2017-Sep-13 07:56N 33°44' W 118°10'0 0.0
2017-Sep-13 07:26N 33°44' W 118°10'0 0.1
2017-Sep-13 06:50N 33°44' W 118°10'0 0.0
2017-Sep-13 06:29N 33°44' W 118°10'0 0.0
2017-Sep-13 05:59N 33°44' W 118°10'610925456.2
2017-Sep-13 05:44N 31°18' E 121°06'0 0.0
2017-Sep-13 05:29N 31°18' E 121°06'6109536442.6
2017-Sep-13 05:29N 33°44' W 118°10'610912518.0
2017-Sep-13 04:59N 31°18' E 121°06'6110511496.3
2017-Sep-13 04:59N 33°44' W 118°10'611012511.0
2017-Sep-13 04:29N 31°18' E 121°06'6109100430.0
2017-Sep-13 04:26N 33°44' W 118°10'0 0.0
2017-Sep-13 03:59N 33°44' W 118°10'0 0.1
2017-Sep-13 03:29N 33°44' W 118°10'0 0.1
2017-Sep-13 02:59N 33°44' W 118°10'0 0.0
2017-Sep-13 02:29N 33°44' W 118°10'0 0.0
2017-Sep-13 01:59N 33°44' W 118°10'0 0.1
2017-Sep-13 01:29N 33°44' W 118°10'0 0.0
2017-Sep-13 00:59N 33°44' W 118°10'0 0.0
2017-Sep-13 00:29N 33°44' W 118°10'0 0.1
2017-Sep-12 23:59N 33°44' W 118°10'0 0.0
2017-Sep-12 23:29N 33°44' W 118°10'0 0.0
2017-Sep-12 22:59N 33°44' W 118°10'0 0.0
2017-Sep-12 22:29N 33°44' W 118°10'0 0.0
2017-Sep-12 21:59N 33°44' W 118°10'0 0.0
2017-Sep-12 21:26N 33°44' W 118°10'0 0.0
2017-Sep-12 20:59N 33°44' W 118°10'0 0.0
2017-Sep-12 20:29N 33°44' W 118°10'0 0.0
2017-Sep-12 19:59N 33°44' W 118°10'0 0.0
2017-Sep-12 19:29N 33°44' W 118°10'0 0.0
2017-Sep-12 18:56N 33°44' W 118°10'0 0.0
2017-Sep-12 18:29N 33°44' W 118°10'0 0.0
2017-Sep-12 17:59N 33°44' W 118°10'0 0.0
2017-Sep-12 17:29N 33°44' W 118°10'0 0.0
2017-Sep-12 16:55N 33°44' W 118°10'0 0.0
2017-Sep-12 16:29N 33°44' W 118°10'0 0.0
2017-Sep-12 15:59N 33°44' W 118°10'0 0.0
2017-Sep-12 15:29N 33°44' W 118°10'0 0.0
2017-Sep-12 14:59N 33°44' W 118°10'0 0.0
2017-Sep-12 14:29N 33°44' W 118°10'0 0.0
2017-Sep-12 13:56N 33°44' W 118°10'0 0.0
2017-Sep-12 13:29N 33°44' W 118°10'0 0.0
2017-Sep-12 12:59N 33°44' W 118°10'0 0.1
2017-Sep-12 12:17N 33°44' W 118°10'0 0.0
2017-Sep-12 11:56N 33°44' W 118°10'0 0.0
2017-Sep-12 11:26N 33°44' W 118°10'0 0.0
2017-Sep-12 10:59N 33°44' W 118°10'0 0.1
2017-Sep-12 10:25N 33°44' W 118°10'0 0.0
2017-Sep-12 09:56N 33°44' W 118°10'0 0.0
2017-Sep-12 09:29N 33°44' W 118°10'0 0.0
2017-Sep-12 08:59N 33°44' W 118°10'0 0.0
2017-Sep-12 08:29N 33°44' W 118°10'0 0.0
2017-Sep-12 07:59N 33°44' W 118°10'0 0.0
2017-Sep-12 07:23N 33°44' W 118°10'0 0.0
2017-Sep-12 06:59N 33°44' W 118°10'0 0.0
2017-Sep-12 06:29N 33°44' W 118°10'0 0.1
2017-Sep-12 05:59N 33°44' W 118°10'0 0.0
2017-Sep-12 05:28N 33°44' W 118°10'0 0.0
2017-Sep-12 04:59N 33°44' W 118°10'0 0.0
2017-Sep-12 04:29N 33°44' W 118°10'0 0.0
2017-Sep-12 03:59N 33°44' W 118°10'0 0.0
2017-Sep-12 03:29N 33°44' W 118°10'0 0.1
2017-Sep-12 02:56N 33°44' W 118°10'0 0.1
2017-Sep-12 02:25N 33°44' W 118°10'0 0.0
2017-Sep-12 01:56N 33°44' W 118°10'0 0.0
2017-Sep-12 01:28N 33°44' W 118°10'0 0.0
2017-Sep-12 00:59N 33°44' W 118°10'0 0.0
2017-Sep-12 00:28N 33°44' W 118°10'0 0.0
2017-Sep-11 23:59N 33°44' W 118°10'0 0.1
2017-Sep-11 23:29N 33°44' W 118°10'0 0.0
2017-Sep-11 22:58N 33°44' W 118°10'0 0.1
2017-Sep-11 22:29N 33°44' W 118°10'0 0.0
2017-Sep-11 21:59N 33°44' W 118°10'0 0.0
2017-Sep-11 21:29N 33°44' W 118°10'0 0.0
2017-Sep-11 20:59N 33°44' W 118°10'0 0.0
2017-Sep-11 20:25N 33°44' W 118°10'0 0.0
2017-Sep-11 19:59N 33°44' W 118°10'0 0.0
2017-Sep-11 19:28N 33°44' W 118°10'0 0.0
2017-Sep-11 18:58N 33°44' W 118°10'0 0.0
2017-Sep-11 18:29N 33°44' W 118°10'0 0.1
2017-Sep-11 17:58N 33°44' W 118°10'0 0.1
2017-Sep-11 17:22N 33°44' W 118°10'0 0.0
2017-Sep-11 16:58N 33°44' W 118°10'0 0.0
2017-Sep-11 16:28N 33°44' W 118°10'0 0.0
2017-Sep-11 15:59N 33°44' W 118°10'0 0.0
2017-Sep-11 15:28N 33°44' W 118°10'0 0.0
2017-Sep-11 14:58N 33°44' W 118°10'0 0.0
2017-Sep-11 14:28N 33°44' W 118°10'0 0.0
2017-Sep-11 13:55N 33°44' W 118°10'0 0.0
2017-Sep-11 13:19N 33°44' W 118°10'0 0.1
2017-Sep-11 12:55N 33°44' W 118°10'0 0.1
2017-Sep-11 12:28N 33°44' W 118°10'0 0.1
2017-Sep-11 11:58N 33°44' W 118°10'0 0.1
2017-Sep-11 11:28N 33°44' W 118°10'0 0.0
2017-Sep-11 10:58N 33°44' W 118°10'0 0.1
2017-Sep-11 10:28N 33°44' W 118°10'0 0.0
2017-Sep-11 09:58N 33°44' W 118°10'0 0.1
2017-Sep-11 09:29N 33°44' W 118°10'0 0.1
2017-Sep-11 08:58N 33°44' W 118°10'0 0.1
2017-Sep-11 08:28N 33°44' W 118°10'0 0.1
2017-Sep-11 07:58N 33°44' W 118°10'0 0.1
2017-Sep-11 07:28N 33°44' W 118°10'0 0.1
2017-Sep-11 06:58N 33°44' W 118°10'0 0.0
2017-Sep-11 06:28N 33°44' W 118°10'0 0.0
2017-Sep-11 05:58N 33°44' W 118°10'0 0.1
2017-Sep-11 05:28N 33°44' W 118°10'0 0.1
2017-Sep-11 04:58N 33°44' W 118°10'0 0.1
2017-Sep-11 04:28N 33°44' W 118°10'0 0.0
2017-Sep-11 03:58N 33°44' W 118°10'0 0.0
2017-Sep-11 03:28N 33°44' W 118°10'0 0.0
2017-Sep-11 02:58N 33°44' W 118°10'0 0.0
2017-Sep-11 02:28N 33°44' W 118°10'0 0.0
2017-Sep-11 01:58N 33°44' W 118°10'0 0.0
2017-Sep-11 01:28N 33°44' W 118°10'0 0.0
2017-Sep-11 00:58N 33°44' W 118°10'0 0.0
2017-Sep-11 00:28N 33°44' W 118°10'0 0.0
2017-Sep-10 23:58N 33°44' W 118°10'0 0.0
2017-Sep-10 23:25N 33°44' W 118°10'0 0.0
2017-Sep-10 22:58N 33°44' W 118°10'0 0.0
2017-Sep-10 22:28N 33°44' W 118°10'0 0.0
2017-Sep-10 21:58N 33°44' W 118°10'0 0.0
2017-Sep-10 21:28N 33°44' W 118°10'0 0.0
2017-Sep-10 20:58N 33°44' W 118°10'0 0.0
2017-Sep-10 20:28N 33°44' W 118°10'0 0.0
2017-Sep-10 19:58N 33°44' W 118°10'0 0.0
2017-Sep-10 19:25N 33°44' W 118°10'0 0.0
2017-Sep-10 18:58N 33°44' W 118°10'0 0.0
2017-Sep-10 18:28N 33°44' W 118°10'0 0.1
2017-Sep-10 17:58N 33°44' W 118°10'0 0.1
2017-Sep-10 17:28N 33°44' W 118°10'0 0.0
2017-Sep-10 16:58N 33°44' W 118°10'0 0.0
2017-Sep-10 16:28N 33°44' W 118°10'0 0.0
2017-Sep-10 15:58N 33°44' W 118°10'0 0.0
2017-Sep-10 15:28N 33°44' W 118°10'0 0.0
2017-Sep-10 14:55N 33°44' W 118°10'0 0.0
2017-Sep-10 13:58N 33°44' W 118°10'0 0.0
2017-Sep-10 13:28N 33°44' W 118°10'0 0.0
2017-Sep-10 12:58N 33°44' W 118°10'0 0.1
2017-Sep-10 12:28N 33°44' W 118°10'0 0.1
2017-Sep-10 11:58N 33°44' W 118°10'0 0.1
2017-Sep-10 11:28N 33°44' W 118°10'0 0.1
2017-Sep-10 10:55N 33°44' W 118°10'0 0.0
2017-Sep-10 10:28N 33°44' W 118°10'0 0.0
2017-Sep-10 09:58N 33°44' W 118°10'0 0.0
2017-Sep-10 09:28N 33°44' W 118°10'0 0.0
2017-Sep-10 08:58N 33°44' W 118°10'0 0.1
2017-Sep-10 08:28N 33°44' W 118°10'0 0.0
2017-Sep-10 07:58N 33°44' W 118°10'0 0.1
2017-Sep-10 07:28N 33°44' W 118°10'0 0.1
2017-Sep-10 06:58N 33°44' W 118°10'0 0.1
2017-Sep-10 06:28N 33°44' W 118°10'0 0.1
2017-Sep-10 05:52N 33°44' W 118°10'0 0.0
2017-Sep-10 05:28N 33°44' W 118°10'0 0.0
2017-Sep-10 04:58N 33°44' W 118°10'0 0.1
2017-Sep-10 04:28N 33°44' W 118°10'0 0.0
2017-Sep-10 03:58N 33°44' W 118°10'0 0.1
2017-Sep-10 03:28N 33°44' W 118°10'0 0.0
2017-Sep-10 02:55N 33°44' W 118°10'0 0.0
2017-Sep-10 02:28N 33°44' W 118°10'0 0.0
2017-Sep-10 01:58N 33°44' W 118°10'0 0.0
2017-Sep-10 01:28N 33°44' W 118°10'0 0.0
2017-Sep-10 00:58N 33°44' W 118°10'0 0.0
2017-Sep-10 00:28N 33°44' W 118°10'0 0.0
2017-Sep-09 23:58N 33°44' W 118°10'0 0.0
2017-Sep-09 23:28N 33°44' W 118°10'0 0.0
2017-Sep-09 22:58N 33°44' W 118°10'0 0.0
2017-Sep-09 22:28N 33°44' W 118°10'0 0.0
2017-Sep-09 21:58N 33°44' W 118°10'0 0.0
2017-Sep-09 21:28N 33°44' W 118°10'0 0.0
2017-Sep-09 20:58N 33°44' W 118°10'0 0.0
2017-Sep-09 20:25N 33°44' W 118°10'0 0.0
2017-Sep-09 19:58N 33°44' W 118°10'0 0.0
2017-Sep-09 19:25N 33°44' W 118°10'0 0.0
2017-Sep-09 18:58N 33°44' W 118°10'0 0.0
2017-Sep-09 18:28N 33°44' W 118°10'0 0.1
2017-Sep-09 17:58N 33°44' W 118°10'0 0.0
2017-Sep-09 17:25N 33°44' W 118°10'0 0.0
2017-Sep-09 16:58N 33°44' W 118°10'0 0.0
2017-Sep-09 16:28N 33°44' W 118°10'0 0.1
2017-Sep-09 15:58N 33°44' W 118°10'0 0.0
2017-Sep-09 15:28N 33°44' W 118°10'0 0.0
2017-Sep-09 14:58N 33°44' W 118°10'0 0.0
2017-Sep-09 14:28N 33°44' W 118°10'0 0.0
2017-Sep-09 13:55N 33°44' W 118°10'0 0.0
2017-Sep-09 13:25N 33°44' W 118°10'0 0.0
2017-Sep-09 12:58N 33°44' W 118°10'0 0.0
2017-Sep-09 12:28N 33°44' W 118°10'0 0.0
2017-Sep-09 11:58N 33°44' W 118°10'0 0.0
2017-Sep-09 11:28N 33°44' W 118°10'0 0.0
2017-Sep-09 10:58N 33°44' W 118°10'0 0.0
2017-Sep-09 10:28N 33°44' W 118°10'0 0.1
2017-Sep-09 09:58N 33°44' W 118°10'0 0.0
2017-Sep-09 09:28N 33°44' W 118°10'0 0.0
2017-Sep-09 08:58N 33°44' W 118°10'0 0.1
2017-Sep-09 08:28N 33°44' W 118°10'0 0.1
2017-Sep-09 07:58N 33°44' W 118°10'0 0.0
2017-Sep-09 07:25N 33°44' W 118°10'0 0.1
2017-Sep-09 06:58N 33°44' W 118°10'0 0.0
2017-Sep-09 06:28N 33°44' W 118°10'0 0.0
2017-Sep-09 05:58N 33°44' W 118°10'0 0.0
2017-Sep-09 05:28N 33°44' W 118°10'0 0.0
2017-Sep-09 04:58N 33°44' W 118°10'0 0.0
2017-Sep-09 04:28N 33°44' W 118°10'0 0.0
2017-Sep-09 03:58N 33°44' W 118°10'0 0.0
2017-Sep-09 03:28N 33°44' W 118°10'0 0.0
2017-Sep-09 02:55N 33°44' W 118°10'0 0.0
2017-Sep-09 02:28N 33°44' W 118°10'0 0.0
2017-Sep-09 01:58N 33°44' W 118°10'0 0.0
2017-Sep-09 01:28N 33°44' W 118°10'0 0.0
2017-Sep-09 00:58N 33°44' W 118°10'0 0.0
2017-Sep-09 00:28N 33°44' W 118°10'0 0.0
2017-Sep-08 23:58N 33°44' W 118°10'0 0.0
2017-Sep-08 23:19N 33°44' W 118°10'0 0.0
2017-Sep-08 22:58N 33°44' W 118°10'0 0.0
2017-Sep-08 22:28N 33°44' W 118°10'0 0.0
2017-Sep-08 21:58N 33°44' W 118°10'0 0.0
2017-Sep-08 21:28N 33°44' W 118°10'0 0.0
2017-Sep-08 20:58N 33°44' W 118°10'0 0.1
2017-Sep-08 20:28N 33°44' W 118°10'0 0.1
2017-Sep-08 19:58N 33°44' W 118°10'0 0.0
2017-Sep-08 19:28N 33°44' W 118°10'0 0.0
2017-Sep-08 18:58N 33°44' W 118°10'0 0.0
2017-Sep-08 18:28N 33°44' W 118°10'0 0.0
2017-Sep-08 17:55N 33°44' W 118°10'0 0.0
2017-Sep-08 17:28N 33°44' W 118°10'0 0.1
2017-Sep-08 16:58N 33°44' W 118°10'0 0.0
2017-Sep-08 16:28N 33°44' W 118°10'0 0.1
2017-Sep-08 15:58N 33°44' W 118°10'0 0.0
2017-Sep-08 15:28N 33°44' W 118°10'0 0.0
2017-Sep-08 14:58N 33°44' W 118°10'0 0.0
2017-Sep-08 14:28N 33°44' W 118°10'0 0.0
2017-Sep-08 13:58N 33°44' W 118°10'0 0.0
2017-Sep-08 13:28N 33°44' W 118°10'0 0.0
2017-Sep-08 12:58N 33°44' W 118°10'0 0.0
2017-Sep-08 12:28N 33°44' W 118°10'0 0.0
2017-Sep-08 11:58N 33°44' W 118°10'0 0.0
2017-Sep-08 11:28N 33°44' W 118°10'0 0.0
2017-Sep-08 10:58N 33°44' W 118°10'0 0.0
2017-Sep-08 10:28N 33°44' W 118°10'0 0.0
2017-Sep-08 09:58N 33°44' W 118°10'0 0.0
2017-Sep-08 09:28N 33°44' W 118°10'0 0.0
2017-Sep-08 08:58N 33°44' W 118°10'0 0.0
2017-Sep-08 08:28N 33°44' W 118°10'0 0.0
2017-Sep-08 07:58N 33°44' W 118°10'0 0.0
2017-Sep-08 07:28N 33°44' W 118°10'0 0.0
2017-Sep-08 06:58N 33°44' W 118°10'0 0.0
2017-Sep-08 06:28N 33°44' W 118°10'0 0.0
2017-Sep-08 05:58N 33°44' W 118°10'0 0.0
2017-Sep-08 05:25N 33°44' W 118°10'0 0.0
2017-Sep-08 04:58N 33°44' W 118°10'0 0.0
2017-Sep-08 04:28N 33°44' W 118°10'0 0.0
2017-Sep-08 03:58N 33°44' W 118°10'0 0.0
2017-Sep-08 03:28N 33°44' W 118°10'0 0.0
2017-Sep-08 02:58N 33°44' W 118°10'0 0.0
2017-Sep-08 02:28N 33°44' W 118°10'0 0.0
2017-Sep-08 01:58N 33°44' W 118°10'0 0.0
2017-Sep-08 01:28N 33°44' W 118°10'0 0.0
2017-Sep-08 00:58N 33°44' W 118°10'0 0.0
2017-Sep-08 00:28N 33°44' W 118°10'0 0.0
2017-Sep-07 23:55N 33°44' W 118°10'0 0.0
2017-Sep-07 23:28N 33°44' W 118°10'0 0.0
2017-Sep-07 22:58N 33°44' W 118°10'0 0.0
2017-Sep-07 22:28N 33°44' W 118°10'0 0.0
2017-Sep-07 21:58N 33°44' W 118°10'0 0.0
2017-Sep-07 21:28N 33°44' W 118°10'0 0.2
2017-Sep-07 21:01N 33°44' W 118°10'1 2.4
2017-Sep-07 20:30N 33°44' W 118°11'1 2.3
2017-Sep-07 19:53N 33°45' W 118°12'0 0.0
2017-Sep-07 19:29N 33°45' W 118°12'0 0.0
2017-Sep-07 18:59N 33°45' W 118°12'0 0.0
2017-Sep-07 18:29N 33°45' W 118°12'0 0.0
2017-Sep-07 17:59N 33°45' W 118°12'0 0.0
2017-Sep-07 17:20N 33°45' W 118°12'0 0.0
2017-Sep-07 16:59N 33°45' W 118°12'0 0.0
2017-Sep-07 16:29N 33°45' W 118°12'0 0.0
2017-Sep-07 15:59N 33°45' W 118°12'0 0.0
2017-Sep-07 15:29N 33°45' W 118°12'0 0.0
2017-Sep-07 14:58N 33°45' W 118°12'0 0.0
2017-Sep-07 14:29N 33°45' W 118°12'0 0.0
2017-Sep-07 13:59N 33°45' W 118°12'0 0.0
2017-Sep-07 13:29N 33°45' W 118°12'0 0.0
2017-Sep-07 12:59N 33°45' W 118°12'0 0.0
2017-Sep-07 12:29N 33°45' W 118°12'0 0.0
2017-Sep-07 11:59N 33°45' W 118°12'0 0.0
2017-Sep-07 11:29N 33°45' W 118°12'0 0.0
2017-Sep-07 10:58N 33°45' W 118°12'  

Dump ship's entire track history